Time;durP1;ratioP1;P1;durP2;ratioP2;P2;SDS_P1;SDS_P2;PMS_P1;PMS_P2;Temp;Humidity;BMP_temperature;BMP_pressure;BME280_temperature;BME280_humidity;BME280_pressure;Samples;Min_cycle;Max_cycle;Signal;HPM_P1;HPM_P2
2021/09/16 00:02:45;;;;;;;;;;;25.20;99.90;;;;;;1783842;78;20123;-93
2021/09/16 00:08:32;;;;;;;;;;;25.30;99.90;;;;;;1706305;81;20205;-91
2021/09/16 00:11:40;;;;;;;;;;;;;;;;;;;;;
2021/09/16 00:14:14;;;;;;;;;;;25.40;99.90;;;;;;1697686;81;20142;-90
2021/09/16 00:17:02;;;;;;;;;;;25.40;99.90;;;;;;1761835;78;20211;-92
2021/09/16 00:19:51;;;;;;;;;;;25.50;99.90;;;;;;1743182;81;20138;-94
2021/09/16 00:22:42;;;;;;;;;;;25.50;99.90;;;;;;1874918;75;20184;-92
2021/09/16 00:25:36;;;;;;;;;;;25.50;99.90;;;;;;1916922;73;20167;-92
2021/09/16 00:28:29;;;;;;;;;;;25.50;99.90;;;;;;1916637;72;20122;-92
2021/09/16 00:31:20;;;;;;;;;;;25.60;99.90;;;;;;1917758;73;20164;-91
2021/09/16 00:34:10;;;;;;;;;;;25.60;99.90;;;;;;1902094;73;20188;-93
2021/09/16 00:53:43;;;;;;;;;;;25.80;99.90;;;;;;1851976;74;20148;-93
2021/09/16 00:56:35;;;;;;;;;;;25.80;99.90;;;;;;1826380;75;20253;-93
2021/09/16 00:59:32;;;;;;;;;;;25.90;99.90;;;;;;1868874;75;20200;-93
2021/09/16 01:02:30;;;;;;;;;;;25.90;99.90;;;;;;1875206;75;20139;-93
2021/09/16 01:05:43;;;;;;;;;;;26.00;99.90;;;;;;1864943;75;20265;-92
2021/09/16 01:08:31;;;;;;;;;;;26.00;99.90;;;;;;1864005;74;20198;-93
2021/09/16 01:14:45;;;;;;;;;;;26.10;99.90;;;;;;1868545;74;20105;-94
2021/09/16 01:17:32;;;;;;;;;;;26.10;99.90;;;;;;1880235;76;20108;-93
2021/09/16 01:20:07;;;;;;;;;;;26.10;99.90;;;;;;1893373;74;20091;-93
2021/09/16 01:25:59;;;;;;;;;;;26.20;99.90;;;;;;1866244;76;20174;-94
2021/09/16 01:31:59;;;;;;;;;;;26.30;99.90;;;;;;1861791;76;20214;-89
2021/09/16 01:34:48;;;;;;;;;;;26.40;99.90;;;;;;1871532;75;20109;-95
2021/09/16 01:37:37;;;;;;;;;;;26.40;99.90;;;;;;1874891;76;20176;-93
2021/09/16 01:40:27;;;;;;;;;;;26.50;99.90;;;;;;1823564;77;20183;-94
2021/09/16 01:43:09;;;;;;;;;;;26.50;99.90;;;;;;1862421;76;20223;-93
2021/09/16 01:45:55;;;;;;;;;;;26.60;99.90;;;;;;1836008;77;20115;-92
2021/09/16 01:48:46;;;;;;;;;;;26.60;99.90;;;;;;1866877;76;20148;-93
2021/09/16 01:51:34;;;;;;;;;;;26.60;99.90;;;;;;1859487;75;20381;-93
2021/09/16 01:54:25;;;;;;;;;;;26.70;99.90;;;;;;1865359;75;20205;-92
2021/09/16 01:57:20;;;;;;;;;;;26.60;99.90;;;;;;1864605;74;20197;-93
2021/09/16 02:00:02;;;;;;;;;;;26.70;99.90;;;;;;1867290;75;20133;-78
2021/09/16 02:02:32;;;;;;;;;;;26.70;99.90;;;;;;1858184;76;20192;-78
2021/09/16 02:05:02;;;;;;;;;;;26.70;99.90;;;;;;1875773;76;20192;-78
2021/09/16 02:16:24;;;;;;;;;;;26.90;99.90;;;;;;1860025;75;20128;-76
2021/09/16 02:22:24;;;;;;;;;;;27.00;99.90;;;;;;1866329;75;20236;-78
2021/09/16 02:25:09;;;;;;;;;;;;;;;;;;;;;
2021/09/16 02:27:51;;;;;;;;;;;27.20;99.90;;;;;;1852358;75;20197;-78
2021/09/16 02:30:37;;;;;;;;;;;;;;;;;;;;;
2021/09/16 02:33:32;;;;;;;;;;;;;;;;;;;;;
2021/09/16 02:39:05;;;;;;;;;;;27.40;99.90;;;;;;1726976;79;20215;-78
2021/09/16 02:44:33;;;;;;;;;;;27.60;99.90;;;;;;1756955;79;20304;-79
2021/09/16 02:47:06;;;;;;;;;;;27.60;99.90;;;;;;1757558;80;20255;-78
2021/09/16 02:49:35;;;;;;;;;;;27.60;99.90;;;;;;1777822;79;20222;-80
2021/09/16 02:52:05;;;;;;;;;;;27.60;99.90;;;;;;1757000;79;20608;-79
2021/09/16 02:54:34;;;;;;;;;;;27.60;99.90;;;;;;1761176;80;20279;-80
2021/09/16 02:57:04;;;;;;;;;;;27.70;99.90;;;;;;1762078;80;20236;-80
2021/09/16 02:59:34;;;;;;;;;;;27.60;99.90;;;;;;1765310;78;20290;-81
2021/09/16 03:02:03;;;;;;;;;;;27.70;99.90;;;;;;1733853;80;20308;-79
2021/09/16 03:04:33;;;;;;;;;;;27.70;99.90;;;;;;1770960;78;20235;-79
2021/09/16 03:07:02;;;;;;;;;;;27.70;99.90;;;;;;1769109;79;20347;-81
2021/09/16 03:09:32;;;;;;;;;;;27.70;99.90;;;;;;1775824;78;20282;-78
2021/09/16 03:12:02;;;;;;;;;;;27.70;99.90;;;;;;1770934;79;20423;-78
2021/09/16 03:14:32;;;;;;;;;;;27.70;99.90;;;;;;1769938;78;20259;-79
2021/09/16 03:19:59;;;;;;;;;;;27.80;99.90;;;;;;1854485;75;20450;-78
2021/09/16 03:22:29;;;;;;;;;;;27.80;99.90;;;;;;1852336;75;20444;-79
2021/09/16 03:24:59;;;;;;;;;;;27.90;99.90;;;;;;1851793;75;20146;-79
2021/09/16 03:27:29;;;;;;;;;;;27.90;99.90;;;;;;1866996;75;20564;-79
2021/09/16 03:29:59;;;;;;;;;;;27.90;99.90;;;;;;1854494;75;20181;-79
2021/09/16 03:32:28;;;;;;;;;;;27.80;99.90;;;;;;1845659;75;20121;-79
2021/09/16 03:34:58;;;;;;;;;;;27.80;99.90;;;;;;1853375;76;20170;-78
2021/09/16 03:37:28;;;;;;;;;;;27.80;99.90;;;;;;1852682;75;20445;-78
2021/09/16 03:42:55;;;;;;;;;;;27.80;99.90;;;;;;1849895;75;20448;-79
2021/09/16 03:45:25;;;;;;;;;;;27.80;99.90;;;;;;1856915;76;20264;-78
2021/09/16 03:47:55;;;;;;;;;;;27.80;99.90;;;;;;1847102;77;20225;-79
2021/09/16 03:50:24;;;;;;;;;;;27.80;99.90;;;;;;1859975;77;20248;-78
2021/09/16 03:52:54;;;;;;;;;;;27.80;99.90;;;;;;1857822;75;20213;-78
2021/09/16 03:55:24;;;;;;;;;;;27.80;99.90;;;;;;1828691;77;20115;-78
2021/09/16 03:57:54;;;;;;;;;;;27.80;99.90;;;;;;1847939;75;20193;-78
2021/09/16 04:00:23;;;;;;;;;;;27.80;99.90;;;;;;1855897;75;20185;-78
2021/09/16 04:02:53;;;;;;;;;;;27.80;99.90;;;;;;1845964;75;20255;-78
2021/09/16 04:14:11;;;;;;;;;;;28.00;99.90;;;;;;1818124;78;20248;-80
2021/09/16 04:19:50;;;;;;;;;;;28.20;99.90;;;;;;1777213;79;20358;-80
2021/09/16 04:22:20;;;;;;;;;;;28.40;99.90;;;;;;1863118;76;20261;-79
2021/09/16 04:24:50;;;;;;;;;;;28.40;99.90;;;;;;1862523;76;20130;-79
2021/09/16 04:27:20;;;;;;;;;;;28.60;99.90;;;;;;1859165;77;20174;-79
2021/09/16 04:29:50;;;;;;;;;;;28.70;99.90;;;;;;1858561;76;20541;-79
2021/09/16 04:32:20;;;;;;;;;;;28.80;99.90;;;;;;1860204;76;20241;-79
2021/09/16 04:34:50;;;;;;;;;;;28.80;99.90;;;;;;1856887;75;20186;-79
2021/09/16 04:37:20;;;;;;;;;;;28.90;99.90;;;;;;1860807;76;20223;-80
2021/09/16 04:39:49;;;;;;;;;;;28.90;99.90;;;;;;1858013;76;20169;-79
2021/09/16 04:42:19;;;;;;;;;;;28.90;99.90;;;;;;1866773;76;20174;-79
2021/09/16 04:44:49;;;;;;;;;;;28.90;99.90;;;;;;1861571;76;20520;-78
2021/09/16 04:47:18;;;;;;;;;;;29.00;99.90;;;;;;1861071;75;20231;-78
2021/09/16 04:49:48;;;;;;;;;;;29.00;99.90;;;;;;1855358;77;20142;-79
2021/09/16 04:52:18;;;;;;;;;;;29.10;99.90;;;;;;1858500;76;20265;-77
2021/09/16 04:54:48;;;;;;;;;;;29.20;99.90;;;;;;1849376;76;20209;-78
2021/09/16 04:57:17;;;;;;;;;;;29.30;99.90;;;;;;1860692;75;20808;-78
2021/09/16 04:59:47;;;;;;;;;;;29.30;99.90;;;;;;1859057;76;20131;-79
2021/09/16 05:02:17;;;;;;;;;;;29.40;99.90;;;;;;1859076;76;20150;-79
2021/09/16 05:07:56;;;;;;;;;;;29.60;99.40;;;;;;1848049;76;20298;-78
2021/09/16 05:10:26;;;;;;;;;;;29.80;99.50;;;;;;1866895;76;20174;-78
2021/09/16 05:12:55;;;;;;;;;;;29.90;99.10;;;;;;1850250;74;20181;-77
2021/09/16 05:15:25;;;;;;;;;;;30.10;99.10;;;;;;1850580;76;20199;-78
2021/09/16 05:17:54;;;;;;;;;;;30.20;98.70;;;;;;1855346;75;20185;-78
2021/09/16 05:20:24;;;;;;;;;;;30.30;98.30;;;;;;1855388;76;20175;-78
2021/09/16 05:22:54;;;;;;;;;;;30.30;98.50;;;;;;1864664;76;20126;-79
2021/09/16 05:25:24;;;;;;;;;;;30.30;98.10;;;;;;1848356;77;20166;-79
2021/09/16 05:27:54;;;;;;;;;;;30.20;98.90;;;;;;1833222;78;20205;-78
2021/09/16 05:30:24;;;;;;;;;;;30.20;99.20;;;;;;1849200;78;20170;-78
2021/09/16 05:35:46;;;;;;;;;;;30.00;99.50;;;;;;1715095;83;20140;-79
2021/09/16 05:38:16;;;;;;;;;;;30.00;98.90;;;;;;1701348;84;20185;-79
2021/09/16 05:40:45;;;;;;;;;;;29.90;99.00;;;;;;1767198;80;20181;-79
2021/09/16 05:43:15;;;;;;;;;;;29.90;98.50;;;;;;1767415;81;20145;-79
2021/09/16 05:45:45;;;;;;;;;;;29.90;98.90;;;;;;1767390;81;20153;-79
2021/09/16 05:48:15;;;;;;;;;;;29.80;98.20;;;;;;1764309;79;20357;-79
2021/09/16 05:50:44;;;;;;;;;;;29.80;98.40;;;;;;1773913;79;20337;-79
2021/09/16 05:53:15;;;;;;;;;;;29.90;97.90;;;;;;1781490;79;20141;-78
2021/09/16 05:55:45;;;;;;;;;;;29.90;97.60;;;;;;1735926;81;20462;-79
2021/09/16 05:58:15;;;;;;;;;;;30.00;97.60;;;;;;1748539;81;20625;-78
2021/09/16 06:00:45;;;;;;;;;;;30.00;97.90;;;;;;1747286;81;20228;-79
2021/09/16 06:03:15;;;;;;;;;;;30.00;97.80;;;;;;1753581;81;20197;-79
2021/09/16 06:05:44;;;;;;;;;;;29.90;97.70;;;;;;1745330;81;20225;-79
2021/09/16 06:08:17;;;;;;;;;;;29.90;97.80;;;;;;1754732;79;20229;-80
2021/09/16 06:10:48;;;;;;;;;;;29.90;98.60;;;;;;1747805;79;20254;-81
2021/09/16 06:13:22;;;;;;;;;;;29.90;98.30;;;;;;1814614;77;20217;-81
2021/09/16 06:15:51;;;;;;;;;;;29.90;98.20;;;;;;1776100;78;20192;-80
2021/09/16 06:18:30;;;;;;;;;;;29.80;98.10;;;;;;1856846;74;20154;-78
2021/09/16 06:21:15;;;;;;;;;;;29.70;98.20;;;;;;1778462;78;20196;-80
2021/09/16 06:23:46;;;;;;;;;;;29.70;98.80;;;;;;1772903;78;20296;-80
2021/09/16 06:26:16;;;;;;;;;;;29.70;99.10;;;;;;1767250;78;20301;-79
2021/09/16 06:28:46;;;;;;;;;;;29.80;98.70;;;;;;1779123;78;20646;-79
2021/09/16 06:34:12;;;;;;;;;;;29.80;98.80;;;;;;1778066;78;20186;-80
2021/09/16 06:36:42;;;;;;;;;;;29.80;98.70;;;;;;1758695;80;20264;-80
2021/09/16 06:39:12;;;;;;;;;;;29.80;98.80;;;;;;1749538;81;20224;-81
2021/09/16 06:41:42;;;;;;;;;;;29.90;98.40;;;;;;1761980;81;20145;-80
2021/09/16 06:44:13;;;;;;;;;;;29.90;98.40;;;;;;1761036;81;20177;-79
2021/09/16 06:50:01;;;;;;;;;;;30.00;97.80;;;;;;1690427;84;20221;-80
2021/09/16 06:58:02;;;;;;;;;;;29.80;98.40;;;;;;1684940;83;20197;-79
2021/09/16 07:00:32;;;;;;;;;;;29.70;98.10;;;;;;1735202;82;20191;-80
2021/09/16 07:03:05;;;;;;;;;;;29.70;98.80;;;;;;1704318;84;20150;-79
2021/09/16 07:05:35;;;;;;;;;;;29.60;98.80;;;;;;1756089;81;20205;-79
2021/09/16 07:08:06;;;;;;;;;;;29.60;98.40;;;;;;1755578;80;20270;-79
2021/09/16 07:10:35;;;;;;;;;;;29.60;98.20;;;;;;1725903;82;20165;-79
2021/09/16 07:13:06;;;;;;;;;;;29.60;98.20;;;;;;1765061;81;20200;-79
2021/09/16 07:15:36;;;;;;;;;;;29.50;98.20;;;;;;1760999;80;20244;-78
2021/09/16 07:18:05;;;;;;;;;;;29.50;98.40;;;;;;1758563;81;20224;-79
2021/09/16 07:20:35;;;;;;;;;;;29.50;98.30;;;;;;1758633;80;20251;-79
2021/09/16 07:23:05;;;;;;;;;;;29.50;98.60;;;;;;1773623;80;20262;-79
2021/09/16 07:25:35;;;;;;;;;;;29.40;98.40;;;;;;1843332;77;20159;-79
2021/09/16 07:28:05;;;;;;;;;;;29.40;98.60;;;;;;1810127;78;20113;-78
2021/09/16 07:30:34;;;;;;;;;;;;;;;;;;1815043;78;20184;-78
2021/09/16 07:33:05;;;;;;;;;;;;;;;;;;1802013;79;20136;-79
2021/09/16 07:35:35;;;;;;;;;;;29.20;98.20;;;;;;1848163;76;20122;-78
2021/09/16 07:38:05;;;;;;;;;;;29.50;98.70;;;;;;1866209;76;20182;-79
2021/09/16 07:40:35;;;;;;;;;;;29.40;98.40;;;;;;1856588;76;20196;-79
2021/09/16 07:43:05;;;;;;;;;;;29.40;98.50;;;;;;1856901;77;20166;-79
2021/09/16 07:45:34;;;;;;;;;;;29.40;98.40;;;;;;1854598;77;20194;-79
2021/09/16 07:48:04;;;;;;;;;;;29.40;98.50;;;;;;1857938;75;20232;-78
2021/09/16 07:50:34;;;;;;;;;;;29.40;98.70;;;;;;1861948;77;20165;-80
2021/09/16 07:53:05;;;;;;;;;;;29.50;99.90;;;;;;1851785;77;20198;-79
2021/09/16 07:55:34;;;;;;;;;;;29.40;98.50;;;;;;1854487;77;20165;-79
2021/09/16 07:58:04;;;;;;;;;;;29.40;98.70;;;;;;1858109;76;20214;-79
2021/09/16 08:00:34;;;;;;;;;;;29.30;98.50;;;;;;1858510;76;20221;-79
2021/09/16 08:03:04;;;;;;;;;;;29.30;98.70;;;;;;1845506;75;20170;-80
2021/09/16 08:05:34;;;;;;;;;;;29.30;98.80;;;;;;1851405;76;20189;-80
2021/09/16 08:11:13;;;;;;;;;;;29.20;98.90;;;;;;1847193;75;20195;-79
2021/09/16 08:13:43;;;;;;;;;;;29.20;99.00;;;;;;1840789;77;20217;-79
2021/09/16 08:16:12;;;;;;;;;;;29.20;99.90;;;;;;1851418;77;20142;-79
2021/09/16 08:18:42;;;;;;;;;;;28.30;99.60;;;;;;1861937;76;20256;-79
2021/09/16 08:24:21;;;;;;;;;;;29.40;99.30;;;;;;1865019;75;20180;-78
2021/09/16 08:26:51;;;;;;;;;;;29.40;98.90;;;;;;1855041;75;20125;-79
2021/09/16 08:29:21;;;;;;;;;;;29.50;99.00;;;;;;1810160;77;20497;-78
2021/09/16 08:31:51;;;;;;;;;;;29.50;98.90;;;;;;1786825;80;20480;-79
2021/09/16 08:34:22;;;;;;;;;;;29.50;98.70;;;;;;1778073;78;20242;-79
2021/09/16 08:36:52;;;;;;;;;;;29.50;98.80;;;;;;1784291;80;20202;-80
2021/09/16 08:39:23;;;;;;;;;;;29.60;98.40;;;;;;1820422;78;20236;-80
2021/09/16 08:44:51;;;;;;;;;;;29.60;98.30;;;;;;1803576;78;20205;-81
2021/09/16 08:47:24;;;;;;;;;;;29.70;98.20;;;;;;1783014;79;20237;-79
2021/09/16 08:49:54;;;;;;;;;;;29.70;98.20;;;;;;1821318;78;20188;-78
2021/09/16 08:52:24;;;;;;;;;;;29.80;98.20;;;;;;1817607;77;20211;-78
2021/09/16 08:54:55;;;;;;;;;;;29.70;98.10;;;;;;1808462;77;20239;-79
2021/09/16 08:57:26;;;;;;;;;;;29.80;97.90;;;;;;1815695;77;20164;-79
2021/09/16 08:59:56;;;;;;;;;;;29.90;98.20;;;;;;1857461;75;20405;-79
2021/09/16 09:02:35;;;;;;;;;;;29.90;98.10;;;;;;1857634;76;20130;-80
2021/09/16 09:05:06;;;;;;;;;;;29.90;98.10;;;;;;1845507;77;20178;-79
2021/09/16 09:07:37;;;;;;;;;;;29.90;98.10;;;;;;1856410;77;20305;-79
2021/09/16 09:10:09;;;;;;;;;;;29.90;97.90;;;;;;1771373;79;20195;-78
2021/09/16 09:15:49;;;;;;;;;;;29.80;97.90;;;;;;1756736;81;20180;-80
2021/09/16 09:18:20;;;;;;;;;;;29.70;98.10;;;;;;1758351;80;20207;-80
2021/09/16 09:20:52;;;;;;;;;;;29.70;97.80;;;;;;1779461;78;20126;-79
2021/09/16 09:23:24;;;;;;;;;;;29.70;97.90;;;;;;1789313;78;20228;-80
2021/09/16 09:25:54;;;;;;;;;;;29.70;98.20;;;;;;1789454;78;20476;-77
2021/09/16 09:28:24;;;;;;;;;;;29.70;98.20;;;;;;1761614;81;20274;-77
2021/09/16 09:30:57;;;;;;;;;;;29.70;97.90;;;;;;1759518;80;20264;-78
2021/09/16 09:33:28;;;;;;;;;;;29.70;98.20;;;;;;1761739;80;21139;-79
2021/09/16 09:35:59;;;;;;;;;;;29.70;98.00;;;;;;1779297;78;20324;-79
2021/09/16 09:38:29;;;;;;;;;;;29.70;97.70;;;;;;1769719;80;20145;-79
2021/09/16 09:41:03;;;;;;;;;;;29.70;98.20;;;;;;1763235;80;20184;-78
2021/09/16 09:43:33;;;;;;;;;;;29.70;98.10;;;;;;1760794;80;20229;-80
2021/09/16 09:48:51;;;;;;;;;;;29.70;98.20;;;;;;1812913;78;20124;-81
2021/09/16 09:51:21;;;;;;;;;;;29.60;98.10;;;;;;1827549;77;20222;-78
2021/09/16 09:53:53;;;;;;;;;;;29.60;98.30;;;;;;1851480;77;20190;-78
2021/09/16 09:56:41;;;;;;;;;;;29.60;98.10;;;;;;1851202;76;20177;-79
2021/09/16 09:59:13;;;;;;;;;;;29.60;98.20;;;;;;1853660;76;20220;-79
2021/09/16 10:04:36;;;;;;;;;;;29.50;98.00;;;;;;1744614;82;20169;-79
2021/09/16 10:07:05;;;;;;;;;;;29.50;97.70;;;;;;1795283;79;20154;-79
2021/09/16 10:09:35;;;;;;;;;;;29.50;98.10;;;;;;1788082;80;20532;-79
2021/09/16 10:12:05;;;;;;;;;;;29.50;98.10;;;;;;1787934;79;20327;-79
2021/09/16 10:14:34;;;;;;;;;;;29.50;98.10;;;;;;1782163;80;20251;-79
2021/09/16 10:17:04;;;;;;;;;;;29.40;98.30;;;;;;1785527;79;20271;-79
2021/09/16 10:19:34;;;;;;;;;;;29.50;98.60;;;;;;1779865;80;20239;-79
2021/09/16 10:22:05;;;;;;;;;;;29.40;98.80;;;;;;1783108;80;20664;-79
2021/09/16 10:24:35;;;;;;;;;;;29.40;98.70;;;;;;1758321;82;20149;-79
2021/09/16 10:27:06;;;;;;;;;;;29.40;98.60;;;;;;1777618;79;20217;-79
2021/09/16 10:29:37;;;;;;;;;;;29.40;98.70;;;;;;1781381;79;20553;-79
2021/09/16 10:32:06;;;;;;;;;;;29.30;98.60;;;;;;1781904;80;20265;-79
2021/09/16 10:34:37;;;;;;;;;;;29.30;98.80;;;;;;1782040;80;20293;-79
2021/09/16 10:37:08;;;;;;;;;;;29.30;98.90;;;;;;1777299;79;20268;-79
2021/09/16 10:39:38;;;;;;;;;;;29.30;99.10;;;;;;1779009;79;20235;-79
2021/09/16 10:42:08;;;;;;;;;;;29.30;99.30;;;;;;1792180;79;20170;-79
2021/09/16 10:44:38;;;;;;;;;;;29.20;99.30;;;;;;1775187;78;20178;-79
2021/09/16 10:47:09;;;;;;;;;;;29.20;99.60;;;;;;1808051;77;20220;-79
2021/09/16 10:49:39;;;;;;;;;;;29.20;99.90;;;;;;1811305;77;20161;-79
2021/09/16 10:52:10;;;;;;;;;;;29.10;99.90;;;;;;1818434;77;20129;-79
2021/09/16 10:54:41;;;;;;;;;;;29.10;99.90;;;;;;1804677;77;20400;-79
2021/09/16 10:57:11;;;;;;;;;;;29.10;99.90;;;;;;1812747;78;20176;-78
2021/09/16 11:02:49;;;;;;;;;;;29.00;99.90;;;;;;1853691;76;20240;-80
2021/09/16 11:05:20;;;;;;;;;;;29.00;99.90;;;;;;1862609;75;20215;-79
2021/09/16 11:07:53;;;;;;;;;;;28.90;99.90;;;;;;1862584;76;20194;-79
2021/09/16 11:10:24;;;;;;;;;;;28.90;99.90;;;;;;1859987;75;20328;-78
2021/09/16 11:12:54;;;;;;;;;;;28.90;99.90;;;;;;1814731;78;20431;-80
2021/09/16 11:15:26;;;;;;;;;;;28.90;99.90;;;;;;1818855;77;20528;-80
2021/09/16 11:17:57;;;;;;;;;;;28.80;99.90;;;;;;1829661;77;20135;-80
2021/09/16 11:21:14;;;;;;;;;;;28.80;99.90;;;;;;1761197;80;20134;-82
2021/09/16 11:23:49;;;;;;;;;;;28.80;99.90;;;;;;1820327;78;20219;-79
2021/09/16 11:29:36;;;;;;;;;;;28.60;99.90;;;;;;1798370;78;20234;-78
2021/09/16 11:32:29;;;;;;;;;;;28.60;99.90;;;;;;1789874;78;20258;-80
2021/09/16 11:35:10;;;;;;;;;;;28.60;99.90;;;;;;1837137;76;20163;-80
2021/09/16 11:37:39;;;;;;;;;;;28.60;99.90;;;;;;1842320;76;20135;-79
2021/09/16 11:40:12;;;;;;;;;;;28.60;99.90;;;;;;1852083;76;20180;-79
2021/09/16 11:42:59;;;;;;;;;;;28.60;99.90;;;;;;1812717;77;20239;-79
2021/09/16 11:45:46;;;;;;;;;;;28.70;99.90;;;;;;1815855;77;20313;-77
2021/09/16 11:48:39;;;;;;;;;;;28.60;99.90;;;;;;1775780;78;20151;-79
2021/09/16 11:51:28;;;;;;;;;;;28.60;99.90;;;;;;1801887;77;20255;-78
2021/09/16 11:54:18;;;;;;;;;;;28.60;99.90;;;;;;1802735;78;20310;-79
2021/09/16 11:57:00;;;;;;;;;;;28.60;99.90;;;;;;1826056;76;20637;-79
2021/09/16 11:59:31;;;;;;;;;;;28.60;99.90;;;;;;1820203;77;20183;-79
2021/09/16 12:02:06;;;;;;;;;;;28.60;99.90;;;;;;1813532;77;20204;-79
2021/09/16 12:05:01;;;;;;;;;;;28.60;99.90;;;;;;1808061;77;20133;-79
2021/09/16 12:07:45;;;;;;;;;;;28.60;99.90;;;;;;1853487;76;20277;-78
2021/09/16 12:10:18;;;;;;;;;;;28.60;99.90;;;;;;1860717;76;20190;-78
2021/09/16 12:13:06;;;;;;;;;;;28.60;99.90;;;;;;1860634;75;20180;-78
2021/09/16 12:16:01;;;;;;;;;;;28.60;99.90;;;;;;1853402;75;20222;-79
2021/09/16 12:21:13;;;;;;;;;;;28.60;99.90;;;;;;1814088;78;20636;-78
2021/09/16 12:23:50;;;;;;;;;;;28.60;99.90;;;;;;1796667;77;20160;-79
2021/09/16 12:26:40;;;;;;;;;;;28.50;99.90;;;;;;1797571;79;20290;-77
2021/09/16 12:29:29;;;;;;;;;;;28.50;99.90;;;;;;1803258;76;20214;-78
2021/09/16 12:32:59;;;;;;;;;;;28.50;99.90;;;;;;1813656;77;20257;-78
2021/09/16 12:35:15;;;;;;;;;;;28.50;99.90;;;;;;1795588;78;20220;-77
2021/09/16 12:40:57;;;;;;;;;;;28.40;99.90;;;;;;1781630;78;20184;-79
2021/09/16 12:43:46;;;;;;;;;;;28.40;99.90;;;;;;1780766;79;20135;-78
2021/09/16 12:46:35;;;;;;;;;;;28.40;99.90;;;;;;1778811;80;20205;-79
2021/09/16 12:49:31;;;;;;;;;;;28.40;99.90;;;;;;1776779;77;20221;-78
2021/09/16 12:52:02;;;;;;;;;;;28.40;99.90;;;;;;1780519;78;20230;-79
2021/09/16 12:54:49;;;;;;;;;;;28.40;99.90;;;;;;1775802;80;20203;-79
2021/09/16 12:57:44;;;;;;;;;;;28.40;99.90;;;;;;1783643;78;20166;-78
2021/09/16 13:00:33;;;;;;;;;;;28.40;99.90;;;;;;1769382;79;20174;-79
2021/09/16 13:03:08;;;;;;;;;;;28.40;99.90;;;;;;1774654;80;20210;-78
2021/09/16 13:05:58;;;;;;;;;;;28.40;99.90;;;;;;1787393;78;20160;-78
2021/09/16 13:08:45;;;;;;;;;;;28.40;99.90;;;;;;1785399;78;20233;-78
2021/09/16 13:11:16;;;;;;;;;;;28.40;99.90;;;;;;1787907;79;20207;-79
2021/09/16 13:13:46;;;;;;;;;;;28.30;99.90;;;;;;1795846;78;20221;-78
2021/09/16 13:16:15;;;;;;;;;;;28.30;99.90;;;;;;1791098;79;20513;-79
2021/09/16 13:18:45;;;;;;;;;;;28.30;99.90;;;;;;1777348;79;20894;-79
2021/09/16 13:21:19;;;;;;;;;;;28.30;99.90;;;;;;1783140;79;20193;-79
2021/09/16 13:23:49;;;;;;;;;;;28.20;99.90;;;;;;1788798;78;20164;-79
2021/09/16 13:26:19;;;;;;;;;;;28.20;99.90;;;;;;1783306;80;20179;-79
2021/09/16 13:28:48;;;;;;;;;;;28.20;99.90;;;;;;1779882;78;20236;-81
2021/09/16 13:31:18;;;;;;;;;;;28.20;99.90;;;;;;1758065;80;20236;-83
2021/09/16 13:33:48;;;;;;;;;;;28.20;99.90;;;;;;1755385;80;20208;-82
2021/09/16 13:36:19;;;;;;;;;;;28.20;99.90;;;;;;1761594;80;20195;-86
2021/09/16 13:38:50;;;;;;;;;;;28.20;99.90;;;;;;1784200;78;20500;-87
2021/09/16 13:41:20;;;;;;;;;;;28.20;99.90;;;;;;1779929;78;20426;-87
2021/09/16 13:43:50;;;;;;;;;;;28.20;99.90;;;;;;1785845;79;20178;-86
2021/09/16 13:46:19;;;;;;;;;;;28.20;99.90;;;;;;1778920;80;20215;-86
2021/09/16 13:48:49;;;;;;;;;;;28.20;99.90;;;;;;1792951;78;20191;-85
2021/09/16 13:54:28;;;;;;;;;;;28.20;99.90;;;;;;1786922;78;20307;-88
2021/09/16 13:56:58;;;;;;;;;;;28.20;99.90;;;;;;1794291;76;20166;-86
2021/09/16 14:02:24;;;;;;;;;;;28.20;99.90;;;;;;1849514;75;20222;-86
2021/09/16 14:04:54;;;;;;;;;;;28.20;99.90;;;;;;1865167;75;20196;-86
2021/09/16 14:07:24;;;;;;;;;;;28.20;99.90;;;;;;1863289;75;20424;-87
2021/09/16 14:10:01;;;;;;;;;;;28.20;99.90;;;;;;1899818;75;20163;-86
2021/09/16 14:12:32;;;;;;;;;;;28.20;99.90;;;;;;1900287;74;20186;-87
2021/09/16 14:15:13;;;;;;;;;;;28.20;99.90;;;;;;1902823;74;20211;-88
2021/09/16 14:17:42;;;;;;;;;;;28.20;99.90;;;;;;1874491;74;20212;-88
2021/09/16 14:20:13;;;;;;;;;;;28.20;99.90;;;;;;1884592;75;20213;-87
2021/09/16 14:23:08;;;;;;;;;;;28.20;99.90;;;;;;1827370;75;20156;-87
2021/09/16 14:25:32;;;;;;;;;;;28.20;99.90;;;;;;1895768;73;20125;-87
2021/09/16 14:28:03;;;;;;;;;;;28.20;99.90;;;;;;1891092;73;20683;-89
2021/09/16 14:30:37;;;;;;;;;;;28.20;99.90;;;;;;1886160;75;20205;-87
2021/09/16 14:33:05;;;;;;;;;;;28.10;99.90;;;;;;1881434;76;20215;-87
2021/09/16 14:35:35;;;;;;;;;;;28.10;99.90;;;;;;1890482;76;20190;-88
2021/09/16 14:38:12;;;;;;;;;;;28.10;99.90;;;;;;1889864;75;20161;-86
2021/09/16 14:40:40;;;;;;;;;;;28.10;99.90;;;;;;1875748;74;20131;-87
2021/09/16 14:43:12;;;;;;;;;;;28.10;99.90;;;;;;1876055;73;20189;-89
2021/09/16 14:45:47;;;;;;;;;;;28.10;99.90;;;;;;1870864;75;20296;-88
2021/09/16 14:48:20;;;;;;;;;;;28.10;99.90;;;;;;1857319;75;20202;-86
2021/09/16 14:50:56;;;;;;;;;;;28.00;99.90;;;;;;1847075;75;20225;-86
2021/09/16 14:53:26;;;;;;;;;;;28.00;99.90;;;;;;1856169;74;20163;-87
2021/09/16 14:56:00;;;;;;;;;;;28.00;99.90;;;;;;1888810;75;20213;-86
2021/09/16 14:58:28;;;;;;;;;;;28.00;99.90;;;;;;1878198;74;20218;-87
2021/09/16 15:01:02;;;;;;;;;;;28.00;99.90;;;;;;1844877;76;20167;-87
2021/09/16 15:03:32;;;;;;;;;;;27.80;99.90;;;;;;1881885;74;20168;-87
2021/09/16 15:06:03;;;;;;;;;;;27.50;99.90;;;;;;1856725;75;20206;-86
2021/09/16 15:11:31;;;;;;;;;;;27.00;99.90;;;;;;1878288;74;20190;-86
2021/09/16 15:14:11;;;;;;;;;;;26.70;99.90;;;;;;1894974;73;20244;-86
2021/09/16 15:16:41;;;;;;;;;;;26.60;99.90;;;;;;1874777;74;20522;-86
2021/09/16 15:19:15;;;;;;;;;;;26.40;99.90;;;;;;1873417;75;20289;-86
2021/09/16 15:21:47;;;;;;;;;;;26.40;99.90;;;;;;1882834;75;20194;-85
2021/09/16 15:24:17;;;;;;;;;;;26.20;99.90;;;;;;1886228;75;20170;-85
2021/09/16 15:26:50;;;;;;;;;;;26.20;99.90;;;;;;1892058;75;20182;-85
2021/09/16 15:29:24;;;;;;;;;;;26.10;99.90;;;;;;1884403;75;20229;-86
2021/09/16 15:35:06;;;;;;;;;;;25.80;99.90;;;;;;1913951;74;20464;-85
2021/09/16 15:40:34;;;;;;;;;;;25.70;99.90;;;;;;1922884;74;20404;-85
2021/09/16 15:43:04;;;;;;;;;;;25.60;99.90;;;;;;1903389;73;20204;-85
2021/09/16 15:45:35;;;;;;;;;;;25.50;99.90;;;;;;1873676;74;20223;-86
2021/09/16 15:48:05;;;;;;;;;;;25.50;99.90;;;;;;1894622;74;20249;-85
2021/09/16 15:50:35;;;;;;;;;;;25.50;99.90;;;;;;1890798;74;20176;-84
2021/09/16 15:53:05;;;;;;;;;;;25.40;99.90;;;;;;1864665;74;20221;-85
2021/09/16 15:55:35;;;;;;;;;;;25.40;99.90;;;;;;1840437;75;20473;-86
2021/09/16 15:58:05;;;;;;;;;;;25.40;99.90;;;;;;1848085;75;20493;-86
2021/09/16 16:00:35;;;;;;;;;;;25.40;99.90;;;;;;1885486;75;20174;-86
2021/09/16 16:03:05;;;;;;;;;;;25.40;99.90;;;;;;1863837;75;20203;-87
2021/09/16 16:05:38;;;;;;;;;;;25.40;99.90;;;;;;1866623;75;20148;-86
2021/09/16 16:08:09;;;;;;;;;;;25.40;99.90;;;;;;1868464;75;20157;-87
2021/09/16 16:10:42;;;;;;;;;;;25.40;99.90;;;;;;1895937;75;20202;-86
2021/09/16 16:13:11;;;;;;;;;;;25.40;99.90;;;;;;1874398;75;20200;-87
2021/09/16 16:15:41;;;;;;;;;;;25.40;99.90;;;;;;1863197;77;20133;-87
2021/09/16 16:18:11;;;;;;;;;;;25.50;99.90;;;;;;1870536;76;20201;-86
2021/09/16 16:20:40;;;;;;;;;;;25.50;99.90;;;;;;1881271;75;20160;-85
2021/09/16 16:23:10;;;;;;;;;;;25.50;99.90;;;;;;1878474;75;20173;-86
2021/09/16 16:25:40;;;;;;;;;;;25.60;99.90;;;;;;1896239;75;20237;-87
2021/09/16 16:28:10;;;;;;;;;;;25.60;99.90;;;;;;1886184;74;20176;-85
2021/09/16 16:30:42;;;;;;;;;;;25.70;99.90;;;;;;1868966;75;20161;-85
2021/09/16 16:33:13;;;;;;;;;;;25.70;99.90;;;;;;1869654;76;20203;-85
2021/09/16 16:35:50;;;;;;;;;;;25.70;99.90;;;;;;1890857;75;20414;-86
2021/09/16 16:38:14;;;;;;;;;;;25.80;99.90;;;;;;1858239;76;20119;-86
2021/09/16 16:40:48;;;;;;;;;;;25.80;99.90;;;;;;1864308;76;20586;-85
2021/09/16 16:43:16;;;;;;;;;;;25.80;99.90;;;;;;1855123;77;20273;-86
2021/09/16 16:45:46;;;;;;;;;;;25.80;99.90;;;;;;1836249;77;20171;-85
2021/09/16 16:48:16;;;;;;;;;;;25.80;99.90;;;;;;1841766;77;20341;-86
2021/09/16 16:50:48;;;;;;;;;;;25.80;99.90;;;;;;1885948;74;20173;-86
2021/09/16 16:53:21;;;;;;;;;;;25.80;99.90;;;;;;1875432;74;20180;-86
2021/09/16 16:55:48;;;;;;;;;;;25.90;99.90;;;;;;1894125;74;20495;-84
2021/09/16 17:01:30;;;;;;;;;;;25.90;99.90;;;;;;1877254;74;20159;-86
2021/09/16 17:04:00;;;;;;;;;;;25.90;99.90;;;;;;1890984;74;20154;-86
2021/09/16 17:10:01;;;;;;;;;;;25.90;99.90;;;;;;1902582;75;20238;-86
2021/09/16 17:12:38;;;;;;;;;;;25.90;99.90;;;;;;1865543;75;20186;-86
2021/09/16 17:15:08;;;;;;;;;;;25.90;99.90;;;;;;1870817;75;20203;-86
2021/09/16 17:17:38;;;;;;;;;;;25.90;99.90;;;;;;1893555;73;20138;-86